createdAt,value
2019-01-18T00:00:46.740Z,99.99
2019-01-18T00:01:56.188Z,99.99
2019-01-18T00:03:05.620Z,99.99
2019-01-18T00:04:15.554Z,99.99
2019-01-18T00:05:25.503Z,99.99
2019-01-18T00:06:35.451Z,99.99
2019-01-18T00:07:45.386Z,99.99
2019-01-18T00:08:55.077Z,99.99
2019-01-18T00:10:04.512Z,99.99
2019-01-18T00:11:14.195Z,99.99
2019-01-18T00:12:24.132Z,99.99
2019-01-18T00:13:33.817Z,99.99
2019-01-18T00:14:42.748Z,99.99
2019-01-18T00:15:52.665Z,99.99
2019-01-18T00:17:02.099Z,99.99
2019-01-18T00:18:11.798Z,99.99
2019-01-18T00:19:21.496Z,99.99
2019-01-18T00:20:31.190Z,99.99
2019-01-18T00:21:41.128Z,99.99
2019-01-18T00:22:50.847Z,99.99
2019-01-18T00:24:00.546Z,99.99
2019-01-18T00:25:10.485Z,99.99
2019-01-18T00:26:20.424Z,99.99
2019-01-18T00:27:30.103Z,99.99
2019-01-18T00:28:39.778Z,99.99
2019-01-18T00:29:49.706Z,99.99
2019-01-18T00:30:59.395Z,99.99
2019-01-18T00:32:09.092Z,99.99
2019-01-18T00:33:19.008Z,99.99
2019-01-18T00:34:28.940Z,99.99
2019-01-18T00:35:38.374Z,99.99
2019-01-18T00:36:48.324Z,99.99
2019-01-18T00:37:58.260Z,99.99
2019-01-18T00:39:08.189Z,99.99
2019-01-18T00:40:17.868Z,99.99
2019-01-18T00:41:27.306Z,99.99
2019-01-18T00:42:37.473Z,99.99
2019-01-18T00:43:46.971Z,99.99
2019-01-18T00:44:56.902Z,99.99
2019-01-18T00:46:06.832Z,99.99
2019-01-18T00:47:16.253Z,99.99
2019-01-18T00:48:25.936Z,99.99
2019-01-18T00:49:35.610Z,99.99
2019-01-18T00:50:45.302Z,99.99
2019-01-18T00:51:55.242Z,99.99
2019-01-18T00:53:05.174Z,99.99
2019-01-18T00:54:14.607Z,99.99
2019-01-18T00:55:24.289Z,99.99
2019-01-18T00:56:34.208Z,99.99
2019-01-18T00:57:43.648Z,99.99
2019-01-18T00:58:53.598Z,99.99
2019-01-18T01:00:03.542Z,99.99
2019-01-18T01:01:13.471Z,99.99
2019-01-18T01:02:23.152Z,99.99
2019-01-18T01:03:33.081Z,99.99
2019-01-18T01:04:43.027Z,99.99
2019-01-18T01:05:52.692Z,99.99
2019-01-18T01:07:01.874Z,99.99
2019-01-18T01:08:11.806Z,99.99
2019-01-18T01:09:21.246Z,99.99
2019-01-18T01:10:31.183Z,99.99
2019-01-18T01:11:40.878Z,99.99
2019-01-18T01:12:50.825Z,99.99
2019-01-18T01:14:00.748Z,99.99
2019-01-18T01:15:10.669Z,99.99
2019-01-18T01:16:20.341Z,99.99
2019-01-18T01:17:30.261Z,99.99
2019-01-18T01:18:40.190Z,99.99
2019-01-18T01:19:50.119Z,99.99
2019-01-18T01:21:00.076Z,99.99
2019-01-18T01:22:09.516Z,99.99
2019-01-18T01:23:19.196Z,99.99
2019-01-18T01:24:29.130Z,99.99
2019-01-18T01:25:38.817Z,99.99
2019-01-18T01:26:48.248Z,99.99
2019-01-18T01:27:58.175Z,99.99
2019-01-18T01:29:07.870Z,99.99
2019-01-18T01:30:17.805Z,99.99
2019-01-18T01:31:27.499Z,99.99
2019-01-18T01:32:37.433Z,99.99
2019-01-18T01:33:47.137Z,99.99
2019-01-18T01:34:57.075Z,99.99
2019-01-18T01:36:06.765Z,99.99
2019-01-18T01:37:16.439Z,99.99
2019-01-18T01:38:25.899Z,99.99
2019-01-18T01:39:35.582Z,99.99
2019-01-18T01:40:45.507Z,99.99
2019-01-18T01:41:54.938Z,99.99
2019-01-18T01:43:04.890Z,99.99
2019-01-18T01:44:14.568Z,99.99
2019-01-18T01:45:24.500Z,99.99
2019-01-18T01:46:34.181Z,99.99
2019-01-18T01:47:43.851Z,99.99
2019-01-18T01:48:53.776Z,99.99
2019-01-18T01:50:03.699Z,99.99
2019-01-18T01:51:13.647Z,99.99
2019-01-18T01:52:23.111Z,99.99
2019-01-18T01:53:32.795Z,99.99
2019-01-18T01:54:42.731Z,99.99
2019-01-18T01:55:52.648Z,99.99
2019-01-18T01:57:02.560Z,99.99
2019-01-18T01:58:11.997Z,99.99
2019-01-18T01:59:21.706Z,99.99
2019-01-18T02:00:31.639Z,99.99
2019-01-18T02:01:41.575Z,99.99
2019-01-18T02:02:51.529Z,99.99
2019-01-18T02:04:01.312Z,99.99
2019-01-18T02:05:11.252Z,99.99
2019-01-18T02:06:21.196Z,99.99
2019-01-18T02:07:31.143Z,99.99
2019-01-18T02:08:40.819Z,99.99
2019-01-18T02:09:50.498Z,99.99
2019-01-18T02:11:00.174Z,99.99
2019-01-18T02:12:09.863Z,99.99
2019-01-18T02:13:19.797Z,99.99
2019-01-18T02:14:29.477Z,99.99
2019-01-18T02:15:39.166Z,99.99
2019-01-18T02:16:49.109Z,99.99
2019-01-18T02:17:59.041Z,99.99
2019-01-18T02:19:08.483Z,99.99
2019-01-18T02:20:18.432Z,99.99
2019-01-18T02:21:28.371Z,99.99
2019-01-18T02:22:38.091Z,99.99
2019-01-18T02:23:48.034Z,99.99
2019-01-18T02:24:57.471Z,99.99
2019-01-18T02:26:07.403Z,99.99
2019-01-18T02:27:17.325Z,99.99
2019-01-18T02:28:27.000Z,99.99
2019-01-18T02:29:37.097Z,99.99
2019-01-18T02:30:47.030Z,99.99
2019-01-18T02:31:56.225Z,99.99
2019-01-18T02:33:06.170Z,99.99
2019-01-18T02:34:15.858Z,99.99
2019-01-18T02:35:25.814Z,99.99
2019-01-18T02:36:35.765Z,99.99
2019-01-18T02:37:45.705Z,99.99
2019-01-18T02:38:54.901Z,99.99
2019-01-18T02:40:04.867Z,99.99
2019-01-18T02:41:14.811Z,99.99
2019-01-18T02:42:24.751Z,99.99
2019-01-18T02:43:34.723Z,99.99
2019-01-18T02:44:44.437Z,99.99
2019-01-18T02:45:54.393Z,99.99
2019-01-18T02:47:04.341Z,99.99
2019-01-18T02:48:14.310Z,99.99
2019-01-18T02:49:24.234Z,99.99
2019-01-18T02:50:34.184Z,99.99
2019-01-18T02:51:43.622Z,99.99
2019-01-18T02:52:53.619Z,99.99
2019-01-18T02:54:03.304Z,99.99
2019-01-18T02:55:13.256Z,99.99
2019-01-18T02:56:22.939Z,99.99
2019-01-18T02:57:32.943Z,99.99
2019-01-18T02:58:42.644Z,99.99
2019-01-18T02:59:52.357Z,99.99
2019-01-18T03:01:09.556Z,99.99
2019-01-18T03:02:19.522Z,99.99
2019-01-18T03:03:28.952Z,99.99
2019-01-18T03:04:38.874Z,99.99
2019-01-18T03:05:48.574Z,99.99
2019-01-18T03:06:58.007Z,99.99
2019-01-18T03:08:07.680Z,99.99
2019-01-18T03:09:17.621Z,99.99
2019-01-18T03:10:27.053Z,99.99
2019-01-18T03:11:36.735Z,99.99
2019-01-18T03:12:46.685Z,99.99
2019-01-18T03:13:56.389Z,99.99
2019-01-18T03:15:06.327Z,99.99
2019-01-18T03:16:16.275Z,99.99
2019-01-18T03:17:26.221Z,99.99
2019-01-18T03:18:36.158Z,99.99
2019-01-18T03:19:45.598Z,99.99
2019-01-18T03:20:55.269Z,99.99
2019-01-18T03:22:05.241Z,99.99
2019-01-18T03:23:15.189Z,99.99
2019-01-18T03:24:25.154Z,99.99
2019-01-18T03:25:35.101Z,99.99
2019-01-18T03:26:45.046Z,99.99
2019-01-18T03:27:54.989Z,99.99
2019-01-18T03:29:04.685Z,99.99
2019-01-18T03:30:21.583Z,99.99
2019-01-18T03:31:31.712Z,99.99
2019-01-18T03:32:41.424Z,99.99
2019-01-18T03:33:51.294Z,99.99
2019-01-18T03:35:01.237Z,99.99
2019-01-18T03:36:11.166Z,99.99
2019-01-18T03:37:21.157Z,99.99
2019-01-18T03:38:31.106Z,99.99
2019-01-18T03:39:40.806Z,99.99
2019-01-18T03:40:50.753Z,99.99
2019-01-18T03:42:00.701Z,99.99
2019-01-18T03:43:10.647Z,99.99
2019-01-18T03:44:20.582Z,99.99
2019-01-18T03:45:30.554Z,99.99
2019-01-18T03:46:40.472Z,99.99
2019-01-18T03:47:50.162Z,99.99
2019-01-18T03:49:00.089Z,99.99
2019-01-18T03:50:10.032Z,99.99
2019-01-18T03:51:19.724Z,99.99
2019-01-18T03:52:29.412Z,99.99
2019-01-18T03:53:39.095Z,99.99
2019-01-18T03:54:49.024Z,99.99
2019-01-18T03:55:58.963Z,99.99
2019-01-18T03:57:08.653Z,99.99
2019-01-18T03:58:18.591Z,99.99
2019-01-18T03:59:28.300Z,99.99
2019-01-18T04:00:38.241Z,99.99
2019-01-18T04:01:47.925Z,99.99
2019-01-18T04:02:57.875Z,99.99
2019-01-18T04:04:08.002Z,99.99
2019-01-18T04:05:17.451Z,99.99
2019-01-18T04:06:27.141Z,99.99
2019-01-18T04:07:37.087Z,99.99
2019-01-18T04:08:47.022Z,99.99
2019-01-18T04:09:56.963Z,99.99
2019-01-18T04:11:06.988Z,99.99
2019-01-18T04:12:16.688Z,99.99
2019-01-18T04:13:26.396Z,99.99
2019-01-18T04:14:36.089Z,99.99
2019-01-18T04:15:46.044Z,99.99
2019-01-18T04:16:55.967Z,99.99
2019-01-18T04:18:05.660Z,99.99
2019-01-18T04:19:15.621Z,99.99
2019-01-18T04:20:25.578Z,99.99
2019-01-18T04:21:35.526Z,99.99
2019-01-18T04:22:45.472Z,99.99
2019-01-18T04:23:55.430Z,99.99
2019-01-18T04:25:05.117Z,99.99
2019-01-18T04:26:15.043Z,99.99
2019-01-18T04:27:24.976Z,99.99
2019-01-18T04:28:34.413Z,99.99
2019-01-18T04:29:44.360Z,99.99
2019-01-18T04:30:54.072Z,99.99
2019-01-18T04:32:03.748Z,99.99
2019-01-18T04:33:13.206Z,99.99
2019-01-18T04:34:22.909Z,99.99
2019-01-18T04:35:32.845Z,99.99
2019-01-18T04:36:42.524Z,99.99
2019-01-18T04:37:52.200Z,99.99
2019-01-18T04:39:02.130Z,99.99
2019-01-18T04:40:12.064Z,99.99
2019-01-18T04:41:21.746Z,99.99
2019-01-18T04:42:31.429Z,99.99
2019-01-18T04:43:41.356Z,99.99
2019-01-18T04:44:51.292Z,99.99
2019-01-18T04:46:00.995Z,99.99
2019-01-18T04:47:10.723Z,99.99
2019-01-18T04:48:20.671Z,99.99
2019-01-18T04:49:30.663Z,99.99
2019-01-18T04:50:40.601Z,99.99
2019-01-18T04:51:50.554Z,99.99
2019-01-18T04:53:00.235Z,99.99
2019-01-18T04:54:10.184Z,99.99
2019-01-18T04:55:19.872Z,99.99
2019-01-18T04:56:29.557Z,99.99
2019-01-18T04:57:39.526Z,99.99
2019-01-18T04:58:49.480Z,99.99
2019-01-18T04:59:59.197Z,99.99
2019-01-18T05:01:08.942Z,99.99
2019-01-18T05:02:18.865Z,99.99
2019-01-18T05:03:28.829Z,99.99
2019-01-18T05:04:38.753Z,99.99
2019-01-18T05:05:48.443Z,99.99
2019-01-18T05:06:58.377Z,99.99
2019-01-18T05:08:07.800Z,99.99
2019-01-18T05:09:17.740Z,99.99
2019-01-18T05:10:27.665Z,99.99
2019-01-18T05:11:37.366Z,99.99
2019-01-18T05:12:46.825Z,99.99
2019-01-18T05:13:56.802Z,99.99
2019-01-18T05:15:06.774Z,99.99
2019-01-18T05:16:16.720Z,99.99
2019-01-18T05:17:26.648Z,99.99
2019-01-18T05:18:36.584Z,99.99
2019-01-18T05:19:46.284Z,99.99
2019-01-18T05:20:55.716Z,99.99
2019-01-18T05:22:05.405Z,99.99
2019-01-18T05:23:14.898Z,99.99
2019-01-18T05:24:24.848Z,99.99
2019-01-18T05:25:34.279Z,99.99
2019-01-18T05:26:43.976Z,99.99
2019-01-18T05:27:53.915Z,99.99
2019-01-18T05:29:03.882Z,99.99
2019-01-18T05:30:13.811Z,99.99
2019-01-18T05:31:23.874Z,99.99
2019-01-18T05:32:33.822Z,99.99
2019-01-18T05:33:43.276Z,99.99
2019-01-18T05:34:52.968Z,99.99
2019-01-18T05:36:02.810Z,99.99
2019-01-18T05:37:12.749Z,99.99
2019-01-18T05:38:22.707Z,99.99
2019-01-18T05:39:32.160Z,99.99
2019-01-18T05:40:41.611Z,99.99
2019-01-18T05:41:51.566Z,99.99
2019-01-18T05:43:01.498Z,99.99
2019-01-18T05:44:11.204Z,99.99
2019-01-18T05:45:20.923Z,99.99
2019-01-18T05:46:30.876Z,99.99
2019-01-18T05:47:40.815Z,99.99
2019-01-18T05:48:50.538Z,99.99
2019-01-18T05:50:00.245Z,99.99
2019-01-18T05:51:09.961Z,99.99
2019-01-18T05:52:19.919Z,99.99
2019-01-18T05:53:28.890Z,99.99
2019-01-18T05:54:38.331Z,99.99
2019-01-18T05:55:47.767Z,99.99
2019-01-18T05:56:57.717Z,99.99
2019-01-18T05:58:07.676Z,99.99
2019-01-18T05:59:17.614Z,99.99
2019-01-18T06:00:27.424Z,99.99
2019-01-18T06:01:37.255Z,99.99
2019-01-18T06:02:46.940Z,99.99
2019-01-18T06:03:56.864Z,99.99
2019-01-18T06:05:06.808Z,99.99
2019-01-18T06:06:16.783Z,99.99
2019-01-18T06:07:26.729Z,99.99
2019-01-18T06:08:36.714Z,99.99
2019-01-18T06:09:46.655Z,99.99
2019-01-18T06:10:56.598Z,99.99
2019-01-18T06:12:06.280Z,99.99
2019-01-18T06:13:16.218Z,99.99
2019-01-18T06:14:26.151Z,99.99
2019-01-18T06:15:35.856Z,99.99
2019-01-18T06:16:45.942Z,99.99
2019-01-18T06:17:55.883Z,99.99
2019-01-18T06:19:05.832Z,99.99
2019-01-18T06:20:15.770Z,99.99
2019-01-18T06:21:25.735Z,99.99
2019-01-18T06:22:35.424Z,99.99
2019-01-18T06:23:45.126Z,99.99
2019-01-18T06:24:55.066Z,99.99
2019-01-18T06:26:05.027Z,99.99
2019-01-18T06:27:15.006Z,99.99
2019-01-18T06:28:26.046Z,99.99
2019-01-18T06:29:35.734Z,99.99
2019-01-18T06:30:45.431Z,99.99
2019-01-18T06:31:55.111Z,99.99
2019-01-18T06:33:04.537Z,99.99
2019-01-18T06:34:14.248Z,99.99
2019-01-18T06:35:24.192Z,99.99
2019-01-18T06:36:34.142Z,99.99
2019-01-18T06:37:44.297Z,99.99
2019-01-18T06:38:54.459Z,99.99
2019-01-18T06:40:04.405Z,99.99
2019-01-18T06:41:14.151Z,99.99
2019-01-18T06:42:24.097Z,99.99
2019-01-18T06:43:33.778Z,99.99
2019-01-18T06:44:43.714Z,99.99
2019-01-18T06:45:53.402Z,99.99
2019-01-18T06:47:03.333Z,99.99
2019-01-18T06:48:13.028Z,99.99
2019-01-18T06:49:23.067Z,99.99
2019-01-18T06:50:33.002Z,99.99
2019-01-18T06:51:42.933Z,99.99
2019-01-18T06:52:52.884Z,99.99
2019-01-18T06:54:02.859Z,99.99
2019-01-18T06:55:12.810Z,99.89
2019-01-18T06:56:22.742Z,99.71
2019-01-18T06:57:32.661Z,99.99
2019-01-18T06:58:42.622Z,99.99
2019-01-18T06:59:52.557Z,99.99
2019-01-18T07:01:08.312Z,99.99
2019-01-18T07:02:18.403Z,99.71
2019-01-18T07:03:28.362Z,99.71
2019-01-18T07:04:43.836Z,99.99
2019-01-18T07:05:53.779Z,99.99
2019-01-18T07:07:03.481Z,99.71
2019-01-18T07:08:13.419Z,99.99
2019-01-18T07:09:23.105Z,99.99
2019-01-18T07:10:33.042Z,99.99
2019-01-18T07:11:42.983Z,99.61
2019-01-18T07:12:52.931Z,99.61
2019-01-18T07:14:02.857Z,99.89
2019-01-18T07:15:12.552Z,99.99
2019-01-18T07:16:22.228Z,99.61
2019-01-18T07:17:32.179Z,99.89
2019-01-18T07:18:42.125Z,99.89
2019-01-18T07:19:52.085Z,99.99
2019-01-18T07:21:01.548Z,99.99
2019-01-18T07:22:11.001Z,99.8
2019-01-18T07:23:20.949Z,99.71
2019-01-18T07:24:30.659Z,99.8
2019-01-18T07:25:40.834Z,99.8
2019-01-18T07:26:50.813Z,99.71
2019-01-18T07:28:00.780Z,99.71
2019-01-18T07:29:10.773Z,99.99
2019-01-18T07:30:20.732Z,99.99
2019-01-18T07:31:30.681Z,99.89
2019-01-18T07:32:40.626Z,99.89
2019-01-18T07:33:50.619Z,99.71
2019-01-18T07:35:00.328Z,99.99
2019-01-18T07:36:11.385Z,99.8
2019-01-18T07:37:21.080Z,99.71
2019-01-18T07:38:31.031Z,99.71
2019-01-18T07:39:40.758Z,99.8
2019-01-18T07:40:50.482Z,99.89
2019-01-18T07:41:59.970Z,99.61
2019-01-18T07:43:09.666Z,99.99
2019-01-18T07:44:19.612Z,99.99
2019-01-18T07:45:29.331Z,99.99
2019-01-18T07:46:38.809Z,99.99
2019-01-18T07:47:48.603Z,99.99
2019-01-18T07:48:58.565Z,99.99
2019-01-18T07:50:08.525Z,99.99
2019-01-18T07:51:25.160Z,99.99
2019-01-18T07:52:35.123Z,99.8
2019-01-18T07:53:45.073Z,99.8
2019-01-18T07:54:54.767Z,99.71
2019-01-18T07:56:04.508Z,99.61
2019-01-18T07:57:14.453Z,99.04
2019-01-18T07:58:24.145Z,99.89
2019-01-18T07:59:34.126Z,99.71
2019-01-18T08:00:44.059Z,99.8
2019-01-18T08:01:53.749Z,99.33
2019-01-18T08:03:03.688Z,99.61
2019-01-18T08:04:13.634Z,99.71
2019-01-18T08:05:23.591Z,99.8
2019-01-18T08:06:33.577Z,98.66
2019-01-18T08:07:43.511Z,98
2019-01-18T08:08:53.610Z,98.19
2019-01-18T08:10:03.601Z,98.47
2019-01-18T08:11:13.311Z,97.63
2019-01-18T08:12:23.255Z,98.66
2019-01-18T08:13:33.221Z,97.63
2019-01-18T08:14:43.173Z,97.81
2019-01-18T08:15:53.161Z,97.63
2019-01-18T08:17:02.908Z,97.44
2019-01-18T08:18:12.602Z,97.34
2019-01-18T08:19:22.305Z,98.38
2019-01-18T08:20:32.275Z,98.19
2019-01-18T08:21:42.228Z,97.96
2019-01-18T08:22:51.913Z,97.39
2019-01-18T08:24:01.371Z,97.49
2019-01-18T08:25:11.333Z,96.92
2019-01-18T08:26:21.225Z,96.73
2019-01-18T08:27:31.031Z,95.97
2019-01-18T08:28:40.716Z,96.16
2019-01-18T08:29:51.478Z,96.64
2019-01-18T08:31:01.158Z,96.26
2019-01-18T08:32:10.594Z,96.54
2019-01-18T08:33:20.274Z,96.92
2019-01-18T08:34:29.966Z,97.2
2019-01-18T08:35:39.652Z,97.3
2019-01-18T08:36:49.339Z,96.83
2019-01-18T08:37:59.035Z,96.26
2019-01-18T08:39:08.724Z,98.05
2019-01-18T08:40:18.435Z,98.14
2019-01-18T08:41:28.392Z,98.14
2019-01-18T08:42:38.345Z,98.62
2019-01-18T08:43:48.319Z,98.43
2019-01-18T08:44:58.029Z,98.71
2019-01-18T08:46:07.991Z,99.19
2019-01-18T08:47:17.963Z,99.38
2019-01-18T08:48:27.919Z,99.95
2019-01-18T08:49:37.882Z,99.66
2019-01-18T08:50:47.328Z,99.99
2019-01-18T08:51:57.287Z,99.99
2019-01-18T08:53:07.230Z,99.76
2019-01-18T08:54:16.673Z,99.47
2019-01-18T08:55:25.880Z,99.76
2019-01-18T08:56:35.619Z,99.99
2019-01-18T08:57:45.322Z,99.99
2019-01-18T08:58:55.283Z,99.99
2019-01-18T09:00:04.997Z,99.99
2019-01-18T09:01:14.965Z,99.95
2019-01-18T09:02:24.917Z,99
2019-01-18T09:03:34.629Z,99.33
2019-01-18T09:04:44.337Z,99.38
2019-01-18T09:05:54.055Z,98.62
2019-01-18T09:07:04.037Z,98.67
2019-01-18T09:08:13.992Z,98.67
2019-01-18T09:09:23.971Z,98.77
2019-01-18T09:10:33.942Z,99.15
2019-01-18T09:11:43.913Z,99.33
2019-01-18T09:12:53.885Z,98.48
2019-01-18T09:14:03.891Z,98.48
2019-01-18T09:15:13.862Z,99.15
2019-01-18T09:16:23.811Z,99.99
2019-01-18T09:17:33.513Z,99.33
2019-01-18T09:18:43.483Z,99.71
2019-01-18T09:19:53.459Z,98.29
2019-01-18T09:21:03.421Z,99.33
2019-01-18T09:22:13.112Z,98.39
2019-01-18T09:23:22.588Z,98.2
2019-01-18T09:24:32.557Z,98.2
2019-01-18T09:25:42.291Z,95.88
2019-01-18T09:26:51.991Z,95.21
2019-01-18T09:28:01.995Z,95.21
2019-01-18T09:29:12.768Z,95.45
2019-01-18T09:30:22.789Z,96.5
2019-01-18T09:31:32.509Z,96.31
2019-01-18T09:32:47.836Z,96.97
2019-01-18T09:33:57.550Z,96.97
2019-01-18T09:35:07.523Z,96.21
2019-01-18T09:36:17.520Z,95.64
2019-01-18T09:37:27.479Z,95.93
2019-01-18T09:38:37.201Z,95.74
2019-01-18T09:39:47.883Z,96.5
2019-01-18T09:40:57.601Z,95.93
2019-01-18T09:42:07.567Z,95.74
2019-01-18T09:43:17.274Z,95.07
2019-01-18T09:44:27.256Z,94.98
2019-01-18T09:45:37.225Z,95.64
2019-01-18T09:46:46.691Z,94.93
2019-01-18T09:47:56.389Z,94.74
2019-01-18T09:49:06.117Z,93.7
2019-01-18T09:50:15.822Z,92.19
2019-01-18T09:51:25.818Z,91.34
2019-01-18T09:52:35.605Z,90.67
2019-01-18T09:53:45.562Z,91.43
2019-01-18T09:54:55.295Z,91.43
2019-01-18T09:56:05.368Z,90.96
2019-01-18T09:57:15.068Z,90.81
2019-01-18T09:58:25.025Z,90.96
2019-01-18T09:59:34.972Z,90.06
2019-01-18T10:00:44.668Z,89.77
2019-01-18T10:01:54.628Z,89.87
2019-01-18T10:03:04.577Z,90.11
2019-01-18T10:04:14.379Z,91.43
2019-01-18T10:05:24.083Z,91.81
2019-01-18T10:06:34.264Z,91.53
2019-01-18T10:07:43.799Z,91.34
2019-01-18T10:08:53.540Z,91
2019-01-18T10:10:03.521Z,89.68
2019-01-18T10:11:12.974Z,89.58
2019-01-18T10:12:22.682Z,89.16
2019-01-18T10:13:32.425Z,90.01
2019-01-18T10:14:42.475Z,89.82
2019-01-18T10:15:52.183Z,91.15
2019-01-18T10:17:01.644Z,90.39
2019-01-18T10:18:11.362Z,90.11
2019-01-18T10:19:21.070Z,90.39
2019-01-18T10:20:30.795Z,90.86
2019-01-18T10:21:40.983Z,90.01
2019-01-18T10:22:51.687Z,90.11
2019-01-18T10:24:01.637Z,90.67
2019-01-18T10:25:11.648Z,90.77
2019-01-18T10:26:21.601Z,90.39
2019-01-18T10:27:31.045Z,90.67
2019-01-18T10:28:41.021Z,90.86
2019-01-18T10:29:50.967Z,91.24
2019-01-18T10:31:00.921Z,91.62
2019-01-18T10:32:10.625Z,91.34
2019-01-18T10:33:20.071Z,90.67
2019-01-18T10:34:30.024Z,90.11
2019-01-18T10:35:39.972Z,89.16
2019-01-18T10:36:49.933Z,87.88
2019-01-18T10:38:00.180Z,87.59
2019-01-18T10:39:09.867Z,87.69
2019-01-18T10:40:19.602Z,87.21
2019-01-18T10:41:29.601Z,86.55
2019-01-18T10:42:39.559Z,86.08
2019-01-18T10:43:49.284Z,86.22
2019-01-18T10:44:59.005Z,86.7
2019-01-18T10:46:08.989Z,86.51
2019-01-18T10:47:18.694Z,86.7
2019-01-18T10:48:28.143Z,86.41
2019-01-18T10:49:38.110Z,87.08
2019-01-18T10:50:47.546Z,85.8
2019-01-18T10:51:57.239Z,86.08
2019-01-18T10:53:07.193Z,84.85
2019-01-18T10:54:16.907Z,84.19
2019-01-18T10:55:26.605Z,84.94
2019-01-18T10:56:36.574Z,85.32
2019-01-18T10:57:46.008Z,86.04
2019-01-18T10:58:55.458Z,86.04
2019-01-18T11:00:05.167Z,86.6
2019-01-18T11:01:15.116Z,85.32
2019-01-18T11:02:25.082Z,85.32
2019-01-18T11:03:34.763Z,85.23
2019-01-18T11:04:44.199Z,83.71
2019-01-18T11:05:54.178Z,83.05
2019-01-18T11:07:04.138Z,83.62
2019-01-18T11:08:19.934Z,83.56
2019-01-18T11:09:30.468Z,82.05
2019-01-18T11:10:40.404Z,80.95
2019-01-18T11:11:50.371Z,80.72
2019-01-18T11:13:00.084Z,79.91
2019-01-18T11:14:09.800Z,79.82
2019-01-18T11:15:19.744Z,79.82
2019-01-18T11:16:29.438Z,79.91
2019-01-18T11:17:39.378Z,80.44
2019-01-18T11:18:48.849Z,79.63
2019-01-18T11:19:58.555Z,78.96
2019-01-18T11:21:08.268Z,79.58
2019-01-18T11:22:18.238Z,79.39
2019-01-18T11:23:28.188Z,78.92
2019-01-18T11:24:38.158Z,78.54
2019-01-18T11:25:47.848Z,79.3
2019-01-18T11:26:57.545Z,79.58
2019-01-18T11:28:07.247Z,79.68
2019-01-18T11:29:17.207Z,79.68
2019-01-18T11:30:26.454Z,79.3
2019-01-18T11:31:36.175Z,78.49
2019-01-18T11:32:45.875Z,78.67
2019-01-18T11:33:55.572Z,78.39
2019-01-18T11:35:05.288Z,78.3
2019-01-18T11:36:15.254Z,76.5
2019-01-18T11:37:24.943Z,76.78
2019-01-18T11:38:34.910Z,76.68
2019-01-18T11:39:44.892Z,75.84
2019-01-18T11:40:54.860Z,75.64
2019-01-18T11:42:07.792Z,76.31
2019-01-18T11:43:18.039Z,77.64
2019-01-18T11:44:27.983Z,78.02
2019-01-18T11:45:37.987Z,76.78
2019-01-18T11:46:47.944Z,75.93
2019-01-18T11:47:57.690Z,75.84
2019-01-18T11:49:07.414Z,76.03
2019-01-18T11:50:17.385Z,76.93
2019-01-18T11:51:26.840Z,75.36
2019-01-18T11:52:36.850Z,76.46
2019-01-18T11:53:46.586Z,76.65
2019-01-18T11:54:56.581Z,77.03
2019-01-18T11:56:06.306Z,77.78
2019-01-18T11:57:16.266Z,77.5
2019-01-18T11:58:25.994Z,79.02
2019-01-18T11:59:35.966Z,78.73
2019-01-18T12:00:45.932Z,79.3
2019-01-18T12:01:55.889Z,79.3
2019-01-18T12:03:05.842Z,79.02
2019-01-18T12:04:15.306Z,78.26
2019-01-18T12:05:25.248Z,78.64
2019-01-18T12:06:35.198Z,79.11
2019-01-18T12:07:45.167Z,79.58
2019-01-18T12:08:55.134Z,79.39
2019-01-18T12:10:05.091Z,78.92
2019-01-18T12:11:15.067Z,78.92
2019-01-18T12:12:25.461Z,79.39
2019-01-18T12:13:35.205Z,78.83
2019-01-18T12:14:44.938Z,78.26
2019-01-18T12:15:54.662Z,76.87
2019-01-18T12:17:04.154Z,75.84
2019-01-18T12:18:13.890Z,75.45
2019-01-18T12:19:23.869Z,74.79
2019-01-18T12:20:33.567Z,75.45
2019-01-18T12:21:43.086Z,74.69
2019-01-18T12:22:52.795Z,74.51
2019-01-18T12:24:02.753Z,74.69
2019-01-18T12:25:12.464Z,74.41
2019-01-18T12:26:22.164Z,74.35
2019-01-18T12:27:32.132Z,73.6
2019-01-18T12:28:42.145Z,72.64
2019-01-18T12:29:52.210Z,73.41
2019-01-18T12:31:01.918Z,73.88
2019-01-18T12:32:11.373Z,74.22
2019-01-18T12:33:21.333Z,73.03
2019-01-18T12:34:31.135Z,72.99
2019-01-18T12:35:41.678Z,73.56
2019-01-18T12:36:51.909Z,72.8
2019-01-18T12:38:08.494Z,72.23
2019-01-18T12:39:18.458Z,72.89
2019-01-18T12:40:28.452Z,72.8
2019-01-18T12:41:38.656Z,73.75
2019-01-18T12:42:48.118Z,74.03
2019-01-18T12:43:57.816Z,75.07
2019-01-18T12:45:07.512Z,74.51
2019-01-18T12:46:17.209Z,74.88
2019-01-18T12:47:26.736Z,74.79
2019-01-18T12:48:36.480Z,72.8
2019-01-18T12:49:46.448Z,72.8
2019-01-18T12:50:56.410Z,72.42
2019-01-18T12:52:06.387Z,72.61
2019-01-18T12:53:16.104Z,72.04
2019-01-18T12:54:25.816Z,71.85
2019-01-18T12:55:35.777Z,72.74
2019-01-18T12:56:45.752Z,71.7
2019-01-18T12:57:55.710Z,72.04
2019-01-18T12:59:05.411Z,71.28
2019-01-18T13:00:15.376Z,70.9
2019-01-18T13:01:25.091Z,69.96
2019-01-18T13:02:37.896Z,70.05
2019-01-18T13:03:47.888Z,70.43
2019-01-18T13:04:57.850Z,70.53
2019-01-18T13:06:07.810Z,70.05
2019-01-18T13:07:17.504Z,70.72
2019-01-18T13:08:26.957Z,70.43
2019-01-18T13:09:36.920Z,69.96
2019-01-18T13:10:46.870Z,70.15
2019-01-18T13:11:56.563Z,70.62
2019-01-18T13:13:06.281Z,70.43
2019-01-18T13:14:16.240Z,69.57
2019-01-18T13:15:25.922Z,69.96
2019-01-18T13:16:35.905Z,70.97
2019-01-18T13:17:45.932Z,70.87
2019-01-18T13:18:55.646Z,69.73
2019-01-18T13:20:05.362Z,70.87
2019-01-18T13:21:15.097Z,71.09
2019-01-18T13:22:28.637Z,70.34
2019-01-18T13:23:38.831Z,70.15
2019-01-18T13:24:48.807Z,69.67
2019-01-18T13:25:58.550Z,69.67
2019-01-18T13:27:08.512Z,68.35
2019-01-18T13:28:18.209Z,68.15
2019-01-18T13:29:27.924Z,68.91
2019-01-18T13:30:37.841Z,69.2
2019-01-18T13:31:47.552Z,69.77
2019-01-18T13:32:57.509Z,70.05
2019-01-18T13:34:07.463Z,69.96
2019-01-18T13:35:17.426Z,69.77
2019-01-18T13:36:27.122Z,69.38
2019-01-18T13:37:37.128Z,69.77
2019-01-18T13:38:46.867Z,69.29
2019-01-18T13:39:56.860Z,68.98
2019-01-18T13:41:11.520Z,69.54
2019-01-18T13:42:21.228Z,69.92
2019-01-18T13:43:30.950Z,69.82
2019-01-18T13:44:46.059Z,69.54
2019-01-18T13:45:55.756Z,68.98
2019-01-18T13:47:05.468Z,68.59
2019-01-18T13:48:20.944Z,68.79
2019-01-18T13:49:30.674Z,68.5
2019-01-18T13:50:40.389Z,68.54
2019-01-18T13:51:50.055Z,68.63
2019-01-18T13:52:59.206Z,68.82
2019-01-18T13:54:09.179Z,67.96
2019-01-18T13:55:19.128Z,68.63
2019-01-18T13:56:29.118Z,67.71
2019-01-18T13:57:38.802Z,67.05
2019-01-18T13:58:48.745Z,67.62
2019-01-18T13:59:58.460Z,67.33
2019-01-18T14:01:08.170Z,67.71
2019-01-18T14:02:17.891Z,68.35
2019-01-18T14:03:27.848Z,68.19
2019-01-18T14:04:38.304Z,69.29
2019-01-18T14:05:48.002Z,69.01
2019-01-18T14:06:57.729Z,69.29
2019-01-18T14:08:07.697Z,68.91
2019-01-18T14:09:17.415Z,69.38
2019-01-18T14:10:27.108Z,69.57
2019-01-18T14:11:36.808Z,69.29
2019-01-18T14:12:46.770Z,68.76
2019-01-18T14:13:56.467Z,69.01
2019-01-18T14:15:06.415Z,69.1
2019-01-18T14:16:16.117Z,69.1
2019-01-18T14:17:25.817Z,69.01
2019-01-18T14:18:35.535Z,69.1
2019-01-18T14:19:45.227Z,70.11
2019-01-18T14:20:55.200Z,70.05
2019-01-18T14:22:04.655Z,70.68
2019-01-18T14:23:14.355Z,70.49
2019-01-18T14:24:24.306Z,71.53
2019-01-18T14:25:34.249Z,71.34
2019-01-18T14:26:44.191Z,71.25
2019-01-18T14:27:53.619Z,70.97
2019-01-18T14:29:03.573Z,70.97
2019-01-18T14:30:12.783Z,70.87
2019-01-18T14:31:22.493Z,71.06
2019-01-18T14:32:32.451Z,71.34
2019-01-18T14:33:42.387Z,71.19
2019-01-18T14:34:52.339Z,70.62
2019-01-18T14:36:02.291Z,71.15
2019-01-18T14:37:12.240Z,72
2019-01-18T14:38:27.527Z,72.38
2019-01-18T14:39:37.472Z,72.48
2019-01-18T14:40:47.169Z,72
2019-01-18T14:41:56.891Z,72.33
2019-01-18T14:43:06.331Z,73.05
2019-01-18T14:44:16.287Z,72.67
2019-01-18T14:45:26.238Z,73.05
2019-01-18T14:46:36.188Z,72.96
2019-01-18T14:47:46.136Z,73.05
2019-01-18T14:48:56.099Z,73.43
2019-01-18T14:50:06.030Z,74.37
2019-01-18T14:51:15.741Z,75.23
2019-01-18T14:52:25.448Z,75.7
2019-01-18T14:53:35.394Z,76.7
2019-01-18T14:54:45.086Z,76.61
2019-01-18T14:55:54.805Z,77.46
2019-01-18T14:57:04.552Z,77.75
2019-01-18T14:58:14.501Z,78.41
2019-01-18T14:59:27.251Z,78.69
2019-01-18T15:00:37.203Z,79.17
2019-01-18T15:01:46.915Z,79.83
2019-01-18T15:03:02.168Z,80.55